• Join FlightAware (Why Join?)
  • Login
  • US Flag 
06:54PM EST


 

Airport Tracker/Info


-or-


 

Live Flight TrackerFlight Track Log ✈ CSZ9597 ✈ 12-Feb-2014 ✈ ZGGG / CAN - ZSWZ / WNZ

Flight Track Log - Related Links

Times and Time Zones

All times are in EST time to prevent confusion due to time zone crossing. See the CSZ9597 flight status page for this flight to view local times or setup timezone preferences in your user account.

Time Position Orientation Groundspeed Altitude Reporting Facility
EST Latitude Longitude Course Direction KTS MPH feet Rate Location/Type
11:39PM 23.9779 114.2123 55° Northeast  Level Estimated
11:40PM 24.0507 114.3270 55° Northeast  Level Estimated
11:41PM 24.1234 114.4419 55° Northeast  Level Estimated
11:42PM 24.1961 114.5570 55° Northeast  Level Estimated
11:43PM 24.2686 114.6721 55° Northeast  Level Estimated
11:44PM 24.3411 114.7874 55° Northeast  Level Estimated
11:45PM 24.4135 114.9028 55° Northeast  Level Estimated
11:46PM 24.4858 115.0184 55° Northeast  Level Estimated
11:47PM 24.5579 115.1341 56° Northeast  Level Estimated
11:48PM 24.6301 115.2499 56° Northeast  Level Estimated
11:49PM 24.7021 115.3659 56° Northeast  Level Estimated
11:50PM 24.7740 115.4819 56° Northeast  Level Estimated
11:51PM 24.8458 115.5982 56° Northeast  Level Estimated
11:52PM 24.9176 115.7145 56° Northeast  Level Estimated
11:53PM 24.9893 115.8310 56° Northeast  Level Estimated
11:54PM 25.0608 115.9476 56° Northeast  Level Estimated
11:55PM 25.1323 116.0644 56° Northeast  Level Estimated
11:56PM 25.2037 116.1813 56° Northeast  Level Estimated
11:57PM 25.2750 116.2983 56° Northeast  Level Estimated
11:58PM 25.3462 116.4155 56° Northeast  Level Estimated
11:59PM 25.4173 116.5328 56° Northeast  Level Estimated
12:00AM 25.4883 116.6503 56° Northeast  Level Estimated
12:01AM 25.5592 116.7679 56° Northeast  Level Estimated
12:02AM 25.6301 116.8856 56° Northeast  Level Estimated
12:03AM 25.7008 117.0035 56° Northeast  Level Estimated
12:04AM 25.7715 117.1215 56° Northeast  Level Estimated
12:05AM 25.8420 117.2396 56° Northeast  Level Estimated
12:06AM 25.9125 117.3579 56° Northeast  Level Estimated
12:07AM 25.9828 117.4764 57° Northeast  Level Estimated
12:08AM 26.0531 117.5949 57° Northeast  Level Estimated
12:09AM 26.1232 117.7137 57° Northeast  Level Estimated
12:10AM 26.1933 117.8325 57° Northeast  Level Estimated
12:11AM 26.2633 117.9515 57° Northeast  Level Estimated
12:12AM 26.3331 118.0707 57° Northeast  Level Estimated
12:13AM 26.4029 118.1899 57° Northeast  Level Estimated
12:14AM 26.4726 118.3094 57° Northeast  Level Estimated
12:15AM 26.5421 118.4290 57° Northeast  Level Estimated
12:16AM 26.6116 118.5487 57° Northeast  Level Estimated
12:17AM 26.6810 118.6685 57° Northeast  Level Estimated
12:18AM 26.7502 118.7886 57° Northeast  Level Estimated
12:19AM 26.8194 118.9087 57° Northeast  Level Estimated
12:20AM 26.8885 119.0290 57° Northeast  Level Estimated
12:21AM 26.9575 119.1495 57° Northeast  Level Estimated
12:22AM 27.0263 119.2701 57° Northeast  Level Estimated
12:23AM 27.0951 119.3908 57° Northeast  Level Estimated
12:24AM 27.1637 119.5117 57° Northeast  Level Estimated
12:25AM 27.2323 119.6328 57° Northeast  Level Estimated
12:26AM 27.3007 119.7540 58° Northeast  Level Estimated
12:27AM 27.3691 119.8753 58° Northeast  Level Estimated
12:28AM 27.4373 119.9968 58° Northeast  Level Estimated
12:29AM 27.5054 120.1185 58° Northeast  Level Estimated
12:30AM 27.5735 120.2403 58° Northeast  Level Estimated
12:31AM 27.6414 120.3622 58° Northeast  Level Estimated
12:32AM 27.7092 120.4843 58° Northeast  Level Estimated
12:33AM 27.7769 120.6066 58° Northeast  Level Estimated
12:34AM 27.8445 120.7290 58° Northeast  Level Estimated
12:35AM 27.9120 120.8515 58° Northeast  Level Estimated
12:36AM 27.9122 120.8519 58° Northeast  Level Estimated
12:37AM 27.9122 120.8519 60° Northeast  Level Estimated
12:38AM 27.9122 120.8519 60° Northeast  Level Estimated
12:39AM 27.9122 120.8519 60° Northeast  Level Estimated
12:40AM 27.9122 120.8519 60° Northeast  Level Estimated
12:41AM 27.9122 120.8519 60° Northeast  Level Estimated
12:42AM 27.9122 120.8519 60° Northeast  Level Estimated
12:43AM 27.9122 120.8519 60° Northeast  Level Estimated
12:44AM 27.9122 120.8519 60° Northeast  Level Estimated
12:45AM 27.9122 120.8519 60° Northeast  Level Estimated
12:46AM 27.9122 120.8519 60° Northeast  Level Estimated
12:47AM 27.9122 120.8519 60° Northeast  Level Estimated
12:48AM 27.9122 120.8519 60° Northeast  Level Estimated
12:49AM 27.9122 120.8519 60° Northeast  Level Estimated
12:50AM 27.9122 120.8519 60° Northeast  Level Estimated
12:51AM 27.9122 120.8519 60° Northeast  Level Estimated